Terminal Aerodrome Forecast
Issued by NWS

Home | Current Version | Previous Version | Text Only | Print | Product List | Glossary On
Versions: 1 2 3 4 5 6 7 8 9 10 11 12 13 14 15 16 17 18 19 20 21 22 23 24 25 26 27
172
FTUS43 KDLH 172356
TAFHYR
TAF
KHYR 172356Z 1800/1824 00000KT 6SM BR OVC012
     FM180300 VRB02KT 3SM BR BKN008
     FM180500 VRB03KT 1SM BR OVC006
      TEMPO 1806/1810 1/2SM FG BKN003
     FM181600 20007KT 4SM BR OVC007
     FM181900 20010KT P6SM BKN013=

USA.gov is the U.S. government's official web portal to all federal, state and local government web resources and services.